createdAt,value
2023-02-03T00:00:00.137Z,4.35
2023-02-03T00:02:26.650Z,2.50
2023-02-03T00:04:55.339Z,3.75
2023-02-03T00:07:26.698Z,3.60
2023-02-03T00:09:53.383Z,3.53
2023-02-03T00:12:24.758Z,2.20
2023-02-03T00:14:53.457Z,3.28
2023-02-03T00:17:22.263Z,2.60
2023-02-03T00:19:50.106Z,3.78
2023-02-03T00:22:18.852Z,1.70
2023-02-03T00:24:45.414Z,2.50
2023-02-03T00:27:14.338Z,4.15
2023-02-03T00:29:42.911Z,4.22
2023-02-03T00:32:09.495Z,2.63
2023-02-03T00:34:36.038Z,3.20
2023-02-03T00:37:04.790Z,5.53
2023-02-03T00:39:31.493Z,3.03
2023-02-03T00:41:58.064Z,3.92
2023-02-03T00:44:24.616Z,4.75
2023-02-03T00:46:51.079Z,4.17
2023-02-03T00:49:17.627Z,5.38
2023-02-03T00:51:44.130Z,5.13
2023-02-03T00:54:11.071Z,3.17
2023-02-03T00:56:42.656Z,3.65
2023-02-03T00:59:11.377Z,7.20
2023-02-03T01:01:42.649Z,4.18
2023-02-03T01:04:09.145Z,2.90
2023-02-03T01:06:40.130Z,4.60
2023-02-03T01:09:06.669Z,4.40
2023-02-03T01:11:33.409Z,5.27
2023-02-03T01:14:02.238Z,4.25
2023-02-03T01:16:36.347Z,3.38
2023-02-03T01:19:03.156Z,2.90
2023-02-03T01:21:30.031Z,8.02
2023-02-03T01:23:56.624Z,4.50
2023-02-03T01:26:24.262Z,6.45
2023-02-03T01:29:05.188Z,4.22
2023-02-03T01:31:39.647Z,4.20
2023-02-03T01:34:13.194Z,4.68
2023-02-03T01:36:40.241Z,4.20
2023-02-03T01:39:06.845Z,3.65
2023-02-03T01:41:40.680Z,3.03
2023-02-03T01:44:34.991Z,3.85
2023-02-03T01:47:03.852Z,4.38
2023-02-03T01:49:36.191Z,3.17
2023-02-03T01:52:07.983Z,5.28
2023-02-03T01:54:43.086Z,3.33
2023-02-03T01:57:36.669Z,5.20
2023-02-03T02:00:09.691Z,6.10
2023-02-03T02:02:36.627Z,5.90
2023-02-03T02:05:14.089Z,6.50
2023-02-03T02:07:55.725Z,3.65
2023-02-03T02:10:22.313Z,4.30
2023-02-03T02:12:49.012Z,5.88
2023-02-03T02:15:20.956Z,4.57
2023-02-03T02:18:14.894Z,6.90
2023-02-03T02:20:55.868Z,6.55
2023-02-03T02:23:49.593Z,3.67
2023-02-03T02:26:36.749Z,6.72
2023-02-03T02:29:14.767Z,3.80
2023-02-03T02:32:02.386Z,5.88
2023-02-03T02:34:51.273Z,4.43
2023-02-03T02:37:32.973Z,5.45
2023-02-03T02:40:08.526Z,3.72
2023-02-03T02:42:39.477Z,6.00
2023-02-03T02:45:17.786Z,6.95
2023-02-03T02:47:48.041Z,5.40
2023-02-03T02:50:23.117Z,5.18
2023-02-03T02:52:51.384Z,7.03
2023-02-03T02:55:27.767Z,3.73
2023-02-03T02:57:58.596Z,4.05
2023-02-03T03:00:25.528Z,4.90
2023-02-03T03:02:52.215Z,3.83
2023-02-03T03:05:22.440Z,4.97
2023-02-03T03:07:55.976Z,7.13
2023-02-03T03:10:27.618Z,3.55
2023-02-03T03:13:01.918Z,5.47
2023-02-03T03:15:33.817Z,4.63
2023-02-03T03:18:18.009Z,3.55
2023-02-03T03:20:49.281Z,5.67
2023-02-03T03:23:29.636Z,3.65
2023-02-03T03:26:10.044Z,3.30
2023-02-03T03:28:48.944Z,5.65
2023-02-03T03:31:18.102Z,5.22
2023-02-03T03:33:49.621Z,5.33
2023-02-03T03:36:39.713Z,4.22
2023-02-03T03:39:28.410Z,7.50
2023-02-03T03:42:05.111Z,4.57
2023-02-03T03:44:38.541Z,5.60
2023-02-03T03:47:15.101Z,4.03
2023-02-03T03:49:47.589Z,4.65
2023-02-03T03:52:20.122Z,6.43
2023-02-03T03:54:50.075Z,6.03
2023-02-03T03:57:27.499Z,3.38
2023-02-03T03:59:57.883Z,4.23
2023-02-03T04:02:25.022Z,9.57
2023-02-03T04:04:53.101Z,5.32
2023-02-03T04:07:20.316Z,3.60
2023-02-03T04:09:46.976Z,6.13
2023-02-03T04:12:22.454Z,5.03
2023-02-03T04:14:48.952Z,6.63
2023-02-03T04:17:20.402Z,5.22
2023-02-03T04:19:49.805Z,6.13
2023-02-03T04:22:18.795Z,4.60
2023-02-03T04:24:45.295Z,5.87
2023-02-03T04:27:11.798Z,4.60
2023-02-03T04:29:40.579Z,4.82
2023-02-03T04:32:07.158Z,5.13
2023-02-03T04:34:33.752Z,6.00
2023-02-03T04:37:00.223Z,4.97
2023-02-03T04:39:29.006Z,5.10
2023-02-03T04:41:55.526Z,6.35
2023-02-03T04:44:21.987Z,5.22
2023-02-03T04:46:48.495Z,6.32
2023-02-03T04:49:17.714Z,3.60
2023-02-03T04:51:50.731Z,4.57
2023-02-03T04:54:17.228Z,3.38
2023-02-03T04:56:44.498Z,5.68
2023-02-03T04:59:13.222Z,6.43
2023-02-03T05:01:44.503Z,5.60
2023-02-03T05:04:13.411Z,5.45
2023-02-03T05:06:39.959Z,4.60
2023-02-03T05:09:08.917Z,6.35
2023-02-03T05:11:35.472Z,6.75
2023-02-03T05:14:04.690Z,3.90
2023-02-03T05:16:36.085Z,4.75
2023-02-03T05:19:04.809Z,5.95
2023-02-03T05:21:33.785Z,7.72
2023-02-03T05:24:07.760Z,4.80
2023-02-03T05:26:35.310Z,2.47
2023-02-03T05:29:02.396Z,5.22
2023-02-03T05:31:29.007Z,3.10
2023-02-03T05:33:58.072Z,7.40
2023-02-03T05:36:24.565Z,6.30
2023-02-03T05:38:51.092Z,5.43
2023-02-03T05:41:35.912Z,5.55
2023-02-03T05:44:02.436Z,4.70
2023-02-03T05:46:31.172Z,3.55
2023-02-03T05:48:57.671Z,6.55
2023-02-03T05:51:28.268Z,3.13
2023-02-03T05:53:57.003Z,5.93
2023-02-03T05:56:28.267Z,7.60
2023-02-03T05:58:59.624Z,4.57
2023-02-03T06:01:28.455Z,5.63
2023-02-03T06:03:57.383Z,6.97
2023-02-03T06:06:33.060Z,4.13
2023-02-03T06:09:05.352Z,5.25
2023-02-03T06:11:33.263Z,5.20
2023-02-03T06:14:00.600Z,4.10
2023-02-03T06:16:31.853Z,4.87
2023-02-03T06:19:03.223Z,8.25
2023-02-03T06:21:32.168Z,7.30
2023-02-03T06:23:59.071Z,3.60
2023-02-03T06:26:28.105Z,5.45
2023-02-03T06:28:56.929Z,4.70
2023-02-03T06:31:23.645Z,5.70
2023-02-03T06:33:50.151Z,4.57
2023-02-03T06:36:18.870Z,5.38
2023-02-03T06:38:45.372Z,5.32
2023-02-03T06:41:11.880Z,5.50
2023-02-03T06:43:40.845Z,6.55
2023-02-03T06:46:07.340Z,6.63
2023-02-03T06:48:33.846Z,4.38
2023-02-03T06:51:00.339Z,5.57
2023-02-03T06:53:29.188Z,7.00
2023-02-03T06:55:55.687Z,6.43
2023-02-03T06:58:22.139Z,6.05
2023-02-03T07:00:48.623Z,4.82
2023-02-03T07:03:19.811Z,6.22
2023-02-03T07:05:48.655Z,4.57
2023-02-03T07:08:15.116Z,3.80
2023-02-03T07:10:44.585Z,4.55
2023-02-03T07:13:13.450Z,9.93
2023-02-03T07:15:40.010Z,8.55
2023-02-03T07:18:09.314Z,4.13
2023-02-03T07:20:38.556Z,5.82
2023-02-03T07:23:05.038Z,6.25
2023-02-03T07:25:33.984Z,4.88
2023-02-03T07:28:00.593Z,4.57
2023-02-03T07:30:29.828Z,4.27
2023-02-03T07:32:58.787Z,5.07
2023-02-03T07:35:30.020Z,6.65
2023-02-03T07:37:56.494Z,7.00
2023-02-03T07:40:22.949Z,5.63
2023-02-03T07:42:50.070Z,4.50
2023-02-03T07:45:18.370Z,4.10
2023-02-03T07:47:45.110Z,5.22
2023-02-03T07:50:12.780Z,5.10
2023-02-03T07:52:39.620Z,10.38
2023-02-03T07:55:11.926Z,6.90
2023-02-03T07:57:43.470Z,4.15
2023-02-03T08:00:13.079Z,6.53
2023-02-03T08:02:42.473Z,7.00
2023-02-03T08:05:09.683Z,9.40
2023-02-03T08:07:36.415Z,8.43
2023-02-03T08:10:03.528Z,6.57
2023-02-03T08:12:35.398Z,7.00
2023-02-03T08:15:07.176Z,5.25
2023-02-03T08:17:33.775Z,7.30
2023-02-03T08:20:02.878Z,6.43
2023-02-03T08:22:29.423Z,4.35
2023-02-03T08:24:55.933Z,6.30
2023-02-03T08:27:23.209Z,5.53
2023-02-03T08:29:54.696Z,8.13
2023-02-03T08:32:22.740Z,4.83
2023-02-03T08:34:52.855Z,8.07
2023-02-03T08:37:24.393Z,6.72
2023-02-03T08:39:51.747Z,7.63
2023-02-03T08:42:18.552Z,8.13
2023-02-03T08:44:45.366Z,7.93
2023-02-03T08:47:12.499Z,10.45
2023-02-03T08:49:39.674Z,4.93
2023-02-03T08:52:08.297Z,5.68
2023-02-03T08:54:35.240Z,6.85
2023-02-03T08:57:01.909Z,6.83
2023-02-03T08:59:31.202Z,5.72
2023-02-03T09:01:59.870Z,5.22
2023-02-03T09:04:28.828Z,6.13
2023-02-03T09:06:55.557Z,4.82
2023-02-03T09:09:26.599Z,7.53
2023-02-03T09:12:01.916Z,4.90
2023-02-03T09:14:30.178Z,4.28
2023-02-03T09:17:03.209Z,6.38
2023-02-03T09:19:34.726Z,5.68
2023-02-03T09:22:06.865Z,4.30
2023-02-03T09:24:36.591Z,6.38
2023-02-03T09:27:05.356Z,5.75
2023-02-03T09:29:32.028Z,5.75
2023-02-03T09:31:58.632Z,4.40
2023-02-03T09:34:25.236Z,5.63
2023-02-03T09:36:51.795Z,6.03
2023-02-03T09:39:18.481Z,4.50
2023-02-03T09:41:47.707Z,5.03
2023-02-03T09:44:37.318Z,5.32
2023-02-03T09:47:13.143Z,7.13
2023-02-03T09:49:47.240Z,5.65
2023-02-03T09:52:31.259Z,4.45
2023-02-03T09:55:00.418Z,6.30
2023-02-03T09:57:32.483Z,5.93
2023-02-03T10:00:04.307Z,9.13
2023-02-03T10:02:44.037Z,4.63
2023-02-03T10:05:37.236Z,5.05
2023-02-03T10:08:31.491Z,5.45
2023-02-03T10:11:29.817Z,6.28
2023-02-03T10:14:02.549Z,5.53
2023-02-03T10:16:31.955Z,7.10
2023-02-03T10:19:09.147Z,6.97
2023-02-03T10:21:44.107Z,4.95
2023-02-03T10:24:15.553Z,6.03
2023-02-03T10:26:42.711Z,4.70
2023-02-03T10:29:26.777Z,4.22
2023-02-03T10:31:57.516Z,3.55
2023-02-03T10:34:25.745Z,4.60
2023-02-03T10:36:55.974Z,4.88
2023-02-03T10:39:25.680Z,4.70
2023-02-03T10:41:58.223Z,8.23
2023-02-03T10:44:50.264Z,5.35
2023-02-03T10:47:47.613Z,4.65
2023-02-03T10:50:23.278Z,3.13
2023-02-03T10:52:52.055Z,3.50
2023-02-03T10:55:22.883Z,4.07
2023-02-03T10:57:49.967Z,3.45
2023-02-03T11:00:22.799Z,3.65
2023-02-03T11:03:06.722Z,4.65
2023-02-03T11:05:36.360Z,4.30
2023-02-03T11:08:05.252Z,3.97
2023-02-03T11:10:41.236Z,4.95
2023-02-03T11:13:11.743Z,6.88
2023-02-03T11:15:46.087Z,3.95
2023-02-03T11:18:37.791Z,4.27
2023-02-03T11:21:40.292Z,3.90
2023-02-03T11:24:14.830Z,3.15
2023-02-03T11:26:48.010Z,2.83
2023-02-03T11:29:23.833Z,4.60
2023-02-03T11:31:55.971Z,3.80
2023-02-03T11:34:28.870Z,2.30
2023-02-03T11:36:55.673Z,3.47
2023-02-03T11:39:28.931Z,3.47
2023-02-03T11:41:59.176Z,4.43
2023-02-03T11:44:29.595Z,7.17
2023-02-03T11:47:01.525Z,4.95
2023-02-03T11:50:05.382Z,7.88
2023-02-03T11:52:46.291Z,5.00
2023-02-03T11:56:00.408Z,4.95
2023-02-03T11:59:02.160Z,3.47
2023-02-03T12:02:09.589Z,5.07
2023-02-03T12:05:20.574Z,3.15
2023-02-03T12:07:47.040Z,4.18
2023-02-03T12:10:39.860Z,5.97
2023-02-03T12:13:14.886Z,3.50
2023-02-03T12:15:54.356Z,4.50
2023-02-03T12:18:45.897Z,4.57
2023-02-03T12:21:35.456Z,4.15
2023-02-03T12:24:24.891Z,4.15
2023-02-03T12:27:05.235Z,3.60
2023-02-03T12:29:47.343Z,3.05
2023-02-03T12:32:41.833Z,3.45
2023-02-03T12:35:20.611Z,5.85
2023-02-03T12:38:05.416Z,5.22
2023-02-03T12:40:56.613Z,2.70
2023-02-03T12:43:37.630Z,2.00
2023-02-03T12:46:10.268Z,1.40
2023-02-03T12:48:51.927Z,2.33
2023-02-03T12:51:32.812Z,2.25
2023-02-03T12:54:08.712Z,1.63
2023-02-03T12:56:42.659Z,2.03
2023-02-03T12:59:16.122Z,1.48
2023-02-03T13:01:58.719Z,2.08
2023-02-03T13:04:44.919Z,3.95
2023-02-03T13:07:41.131Z,2.40
2023-02-03T13:10:44.938Z,1.10
2023-02-03T13:13:15.057Z,1.30
2023-02-03T13:15:48.052Z,1.92
2023-02-03T13:18:15.705Z,2.05
2023-02-03T13:20:45.309Z,1.70
2023-02-03T13:23:15.996Z,2.40
2023-02-03T13:26:03.718Z,3.03
2023-02-03T13:28:53.455Z,1.23
2023-02-03T13:31:38.868Z,1.85
2023-02-03T13:34:17.080Z,1.17
2023-02-03T13:37:05.074Z,0.80
2023-02-03T13:40:07.077Z,1.52
2023-02-03T13:42:41.657Z,2.22
2023-02-03T13:45:34.463Z,1.27
2023-02-03T13:48:11.341Z,3.03
2023-02-03T13:50:41.467Z,9.60
2023-02-03T13:53:18.953Z,5.20
2023-02-03T13:56:09.558Z,2.33
2023-02-03T13:58:39.424Z,1.67
2023-02-03T14:01:38.849Z,1.77
2023-02-03T14:04:29.297Z,2.15
2023-02-03T14:07:00.863Z,1.30
2023-02-03T14:09:34.568Z,2.25
2023-02-03T14:12:18.463Z,1.08
2023-02-03T14:14:58.510Z,1.60
2023-02-03T14:17:36.436Z,2.65
2023-02-03T14:20:26.615Z,2.22
2023-02-03T14:22:54.653Z,2.25
2023-02-03T14:25:24.777Z,2.33
2023-02-03T14:28:11.221Z,1.57
2023-02-03T14:31:05.379Z,1.20
2023-02-03T14:34:06.395Z,2.30
2023-02-03T14:36:38.040Z,1.40
2023-02-03T14:39:29.999Z,2.50
2023-02-03T14:42:22.625Z,2.47
2023-02-03T14:45:07.168Z,1.67
2023-02-03T14:48:12.794Z,0.80
2023-02-03T14:51:04.376Z,1.63
2023-02-03T14:53:39.822Z,1.73
2023-02-03T14:57:03.387Z,1.50
2023-02-03T14:59:56.687Z,2.17
2023-02-03T15:02:27.946Z,1.52
2023-02-03T15:05:12.881Z,7.35
2023-02-03T15:07:52.463Z,5.47
2023-02-03T15:10:23.237Z,4.40
2023-02-03T15:12:54.783Z,6.53
2023-02-03T15:15:30.129Z,5.65
2023-02-03T15:17:59.783Z,4.75
2023-02-03T15:20:33.375Z,2.17
2023-02-03T15:23:00.507Z,4.80
2023-02-03T15:25:31.399Z,7.43
2023-02-03T15:28:22.103Z,7.95
2023-02-03T15:30:57.978Z,8.20
2023-02-03T15:33:25.265Z,16.85
2023-02-03T15:36:00.843Z,8.27
2023-02-03T15:38:42.006Z,5.00
2023-02-03T15:41:19.896Z,6.88
2023-02-03T15:43:48.433Z,7.10
2023-02-03T15:46:39.637Z,18.38
2023-02-03T15:49:15.919Z,9.90
2023-02-03T15:51:51.841Z,2.65
2023-02-03T15:54:30.388Z,10.40
2023-02-03T15:57:02.186Z,9.93
2023-02-03T15:59:40.067Z,1.85
2023-02-03T16:02:18.705Z,3.53
2023-02-03T16:04:50.198Z,7.70
2023-02-03T16:07:25.833Z,5.95
2023-02-03T16:09:54.253Z,4.10
2023-02-03T16:12:33.840Z,5.82
2023-02-03T16:15:04.095Z,11.93
2023-02-03T16:17:32.415Z,10.82
2023-02-03T16:20:11.272Z,12.48
2023-02-03T16:22:41.215Z,20.98
2023-02-03T16:25:21.428Z,7.85
2023-02-03T16:28:17.312Z,4.80
2023-02-03T16:31:34.166Z,5.00
2023-02-03T16:34:38.141Z,3.15
2023-02-03T16:37:42.458Z,5.22
2023-02-03T16:40:31.764Z,6.15
2023-02-03T16:43:17.481Z,7.70
2023-02-03T16:46:02.489Z,8.45
2023-02-03T16:48:50.247Z,10.88
2023-02-03T16:51:17.296Z,3.88
2023-02-03T16:53:45.444Z,8.60
2023-02-03T16:56:13.679Z,5.30
2023-02-03T16:58:40.574Z,2.85
2023-02-03T17:01:09.654Z,3.03
2023-02-03T17:03:36.860Z,3.10
2023-02-03T17:06:11.487Z,4.35
2023-02-03T17:08:41.879Z,4.83
2023-02-03T17:11:16.312Z,6.97
2023-02-03T17:13:43.247Z,5.78
2023-02-03T17:16:17.419Z,4.30
2023-02-03T17:18:49.226Z,2.97
2023-02-03T17:21:21.519Z,6.13
2023-02-03T17:23:48.218Z,4.72
2023-02-03T17:26:14.796Z,2.80
2023-02-03T17:28:43.177Z,2.53
2023-02-03T17:31:15.591Z,1.90
2023-02-03T17:33:44.720Z,3.67
2023-02-03T17:36:15.441Z,1.13
2023-02-03T17:55:34.905Z,10.40
2023-02-03T17:58:04.002Z,8.35
2023-02-03T18:00:32.874Z,5.63
2023-02-03T18:02:59.575Z,10.80
2023-02-03T18:05:26.224Z,8.63
2023-02-03T18:07:55.140Z,10.57
2023-02-03T18:10:21.874Z,8.95
2023-02-03T18:12:48.508Z,9.00
2023-02-03T18:15:15.278Z,7.65
2023-02-03T18:17:44.171Z,5.43
2023-02-03T18:20:13.765Z,4.95
2023-02-03T18:22:42.627Z,4.63
2023-02-03T18:25:09.708Z,3.53
2023-02-03T18:27:41.063Z,3.95
2023-02-03T18:30:11.642Z,2.88
2023-02-03T18:32:40.673Z,3.20
2023-02-03T18:35:13.016Z,3.35
2023-02-03T18:37:39.571Z,2.07
2023-02-03T18:40:09.349Z,2.28
2023-02-03T18:42:38.238Z,2.10
2023-02-03T18:45:06.441Z,3.25
2023-02-03T18:47:33.968Z,2.03
2023-02-03T18:50:02.940Z,2.00
2023-02-03T18:52:29.489Z,3.75
2023-02-03T18:54:56.061Z,2.83
2023-02-03T18:57:26.098Z,1.15
2023-02-03T18:59:55.432Z,2.70
2023-02-03T19:02:25.777Z,1.10
2023-02-03T19:04:58.305Z,1.60
2023-02-03T19:07:26.133Z,4.00
2023-02-03T19:09:54.948Z,2.20
2023-02-03T19:12:21.575Z,4.32
2023-02-03T19:14:50.338Z,2.57
2023-02-03T19:17:19.133Z,2.20
2023-02-03T19:19:50.562Z,1.75
2023-02-03T19:22:21.938Z,2.30
2023-02-03T19:24:48.519Z,12.20
2023-02-03T19:27:15.098Z,3.60
2023-02-03T19:29:46.435Z,9.00
2023-02-03T19:32:15.683Z,11.32
2023-02-03T19:34:42.426Z,4.28
2023-02-03T19:37:11.523Z,25.90
2023-02-03T19:39:39.393Z,28.00
2023-02-03T19:42:06.021Z,23.58
2023-02-03T19:44:32.706Z,15.98
2023-02-03T19:47:03.387Z,3.95
2023-02-03T19:49:30.196Z,4.03
2023-02-03T19:51:59.252Z,4.47
2023-02-03T19:54:28.266Z,4.28
2023-02-03T19:56:57.586Z,3.97
2023-02-03T19:59:26.640Z,3.80
2023-02-03T20:01:53.571Z,3.30
2023-02-03T20:04:20.209Z,3.13
2023-02-03T20:06:46.783Z,5.57
2023-02-03T20:09:13.382Z,3.78
2023-02-03T20:11:39.931Z,6.00
2023-02-03T20:14:06.471Z,3.78
2023-02-03T20:16:33.134Z,3.07
2023-02-03T20:19:01.146Z,2.33
2023-02-03T20:21:27.820Z,2.92
2023-02-03T20:23:56.615Z,4.65
2023-02-03T20:26:27.919Z,2.78
2023-02-03T20:28:56.885Z,3.93
2023-02-03T20:31:25.839Z,4.82
2023-02-03T20:33:54.897Z,3.33
2023-02-03T20:36:23.697Z,4.50
2023-02-03T20:38:50.401Z,5.88
2023-02-03T20:41:20.206Z,2.73
2023-02-03T20:43:47.601Z,4.75
2023-02-03T20:46:18.920Z,11.27
2023-02-03T20:48:48.474Z,4.75
2023-02-03T20:51:18.022Z,4.15
2023-02-03T20:53:44.620Z,4.10
2023-02-03T20:56:15.714Z,6.55
2023-02-03T20:58:43.703Z,5.75
2023-02-03T21:01:19.267Z,3.72
2023-02-03T21:04:11.885Z,2.30
2023-02-03T21:06:39.506Z,3.07
2023-02-03T21:09:14.876Z,1.75
2023-02-03T21:11:42.551Z,2.08
2023-02-03T21:14:40.842Z,2.72
2023-02-03T21:17:19.007Z,1.70
2023-02-03T21:19:51.224Z,2.17
2023-02-03T21:22:26.607Z,1.45
2023-02-03T21:25:01.090Z,2.08
2023-02-03T21:27:28.544Z,2.30
2023-02-03T21:29:59.136Z,2.17
2023-02-03T21:32:40.148Z,2.83
2023-02-03T21:35:37.375Z,2.60
2023-02-03T21:38:31.500Z,1.88
2023-02-03T21:41:01.212Z,2.03
2023-02-03T21:43:36.369Z,2.70
2023-02-03T21:46:02.978Z,1.73
2023-02-03T21:48:38.670Z,1.23
2023-02-03T21:51:26.599Z,3.65
2023-02-03T21:53:55.909Z,2.65
2023-02-03T21:56:22.585Z,2.58
2023-02-03T21:58:55.317Z,1.80
2023-02-03T22:01:26.560Z,2.65
2023-02-03T22:03:56.245Z,3.15
2023-02-03T22:06:25.453Z,1.52
2023-02-03T22:08:54.598Z,1.88
2023-02-03T22:11:24.032Z,3.50
2023-02-03T22:13:52.753Z,2.53
2023-02-03T22:16:21.655Z,3.65
2023-02-03T22:18:51.382Z,3.10
2023-02-03T22:21:20.951Z,2.70
2023-02-03T22:23:52.279Z,2.43
2023-02-03T22:26:19.878Z,2.60
2023-02-03T22:28:46.994Z,3.00
2023-02-03T22:31:16.729Z,2.92
2023-02-03T22:33:46.070Z,2.60
2023-02-03T22:36:12.929Z,2.43
2023-02-03T22:38:40.426Z,1.55
2023-02-03T22:41:08.865Z,3.50
2023-02-03T22:43:35.653Z,2.85
2023-02-03T22:46:02.397Z,3.17
2023-02-03T22:48:29.429Z,1.93
2023-02-03T22:50:59.471Z,3.20
2023-02-03T22:53:26.752Z,3.40
2023-02-03T22:56:00.118Z,3.10
2023-02-03T22:58:26.650Z,3.80
2023-02-03T23:00:53.244Z,4.90
2023-02-03T23:03:19.817Z,3.85
2023-02-03T23:05:51.170Z,3.60
2023-02-03T23:08:20.515Z,2.15
2023-02-03T23:10:49.555Z,2.63
2023-02-03T23:13:18.473Z,3.37
2023-02-03T23:15:47.538Z,3.00
2023-02-03T23:18:18.881Z,2.45
2023-02-03T23:20:45.445Z,2.80
2023-02-03T23:23:12.032Z,2.38
2023-02-03T23:25:38.606Z,3.67
2023-02-03T23:28:05.299Z,4.28
2023-02-03T23:30:32.344Z,1.85
2023-02-03T23:33:01.387Z,3.20
2023-02-03T23:35:45.991Z,2.13
2023-02-03T23:38:16.900Z,2.83
2023-02-03T23:40:43.873Z,3.10
2023-02-03T23:43:10.570Z,3.28
2023-02-03T23:45:37.155Z,2.75
2023-02-03T23:48:04.313Z,2.97
2023-02-03T23:50:33.358Z,3.43
2023-02-03T23:53:04.823Z,2.97
2023-02-03T23:55:31.525Z,3.05
2023-02-03T23:58:00.377Z,3.85
